James Reserve, California Weather observations

Data are for 10 minute period ending at time listed.
 Day   Time   Solar   Ave.   Ave.  Ave.  Vector  Max.   Baro.   Total    
  of    of     Rad.   Air    Rel.  Wind   Wind   Wind  Press.  Precip.   
Year   Day            Temp.  Hum.  Speed  Dir.   Gust                    
2016   (PST)  Kw/m2    F      %     mph   deg.    mph    mb.     in.     
-------------------------------------------------------------------------
 125    4:00   0.00   39.4    80    0.3    29     0.6   836.4    0.00 
 125    4:10   0.00   39.5    79    0.4    32     0.7   836.3    0.00 
 125    4:20   0.00   39.6    79    0.4    31     0.9   836.3    0.00 
 125    4:30   0.00   39.7    79    0.5    38     0.9   836.3    0.00 
 125    4:40   0.00   40.0    79    0.5    34     0.9   836.3    0.00 
 125    4:50   0.00   40.1    78    0.5    30     1.0   836.3    0.00 
 125    5:00   0.00   40.2    79    0.5    40     1.0   836.3    0.00 
 125    5:10   0.00   40.5    80    0.5    34     0.9   836.4    0.00 
 125    5:20   0.01   40.8    79    0.5    33     1.0   836.4    0.00 
 125    5:30   0.01   41.1    80    0.5    34     0.8   836.5    0.00 
 125    5:40   0.01   41.4    79    0.4    34     0.8   836.5    0.00 
 125    5:50   0.03   41.9    80    0.4    39     0.8   836.5    0.00 
 125    6:00   0.03   42.3    80    0.5    37     1.0   836.6    0.00 
 125    6:10   0.03   42.9    80    0.6    44     1.4   836.7    0.00 
 125    6:20   0.03   43.3    80    0.6    48     0.9   836.7    0.00 
 125    6:30   0.04   43.8    80    0.7    38     1.1   836.7    0.00 
 125    6:40   0.04   44.7    79    0.7    48     1.2   836.8    0.00 
 125    6:50   0.04   45.6    78    0.7    32     1.5   836.9    0.00 
 125    7:00   0.06   46.4    76    0.7    45     1.3   836.9    0.00 
 125    7:10   0.09   47.8    74    0.9    32     2.3   836.9    0.00 
 125    7:20   0.08   49.0    72    0.7    30     1.4   836.8    0.00 
 125    7:30   0.05   50.0    71    0.7    37     1.3   836.7    0.00 
 125    7:40   0.23   51.8    67    0.6    58     1.6   836.7    0.00 
 125    7:50   0.53   54.5    61    0.5    44     1.2   836.7    0.00 
 125    8:00   0.62   55.9    58    0.5    52     1.3   836.7    0.00 
 125    8:10   0.66   58.9    49    0.6    81     1.8   836.7    0.00 
 125    8:20   0.69   61.5    41    0.6   179     1.9   836.6    0.00 
 125    8:30   0.72   62.0    37    0.9   216     2.0   836.6    0.00 
 125    8:40   0.76   63.5    36    0.8   290     1.9   836.6    0.00 
 125    8:50   0.80   64.3    32    1.2   228     3.9   836.6    0.00 
 125    9:00   0.83   64.9    30    0.9   202     2.1   836.5    0.00 
 125    9:10   0.86   60.9    31    1.0   190     2.3   836.5    0.00 
 125    9:20   0.89  -38.3     1    1.0   218     2.8   836.5    0.00 
 125    9:30   0.92   -8.5    17    1.1   181     3.0   836.6    0.00 
 125    9:40   0.94    9.1    27    1.0   205     2.7   836.5    0.00 
 125    9:50   0.96   26.8    36    0.9   183     2.1   836.5    0.00 
 125   10:00   0.97   -4.5    20    0.9   164     2.2   836.5    0.00 
 125   10:10   0.99  -28.0     6    0.8   173     2.9   836.5    0.00 
 125   10:20   1.01  -32.4     4    1.0   181     2.3   836.6    0.00 
 125   10:30   1.02   12.0    29    1.0   181     2.8   836.6    0.00 
 125   10:40   1.03  -23.7     9    1.2   196     2.9   836.6    0.00 
 125   10:50   1.05   23.3    35    1.1   239     3.2   836.6    0.00 
 125   11:00   1.06  -14.3    14    0.9   220     2.4   836.6    0.00 
 125   11:10   1.06   53.0    51    1.1   217     2.6   836.5    0.00 
 125   11:20   1.07  -31.9     4    1.0   182     2.7   836.5    0.00 
 125   11:30   1.08  -10.5    16    1.0   174     2.6   836.4    0.00 
 125   11:40   1.08    1.0    22    0.8   209     1.6   836.3    0.00 
 125   11:50   1.08   -6.0    18    1.2   179     3.3   836.3    0.00 
 125   12:00   1.08   -8.6    17    1.1   160     2.4   836.3    0.00 
 125   12:10   1.07   -1.4    21    1.1   176     2.6   836.3    0.00 
 125   12:20   1.06  -14.7    14    0.8   162     2.2   836.3    0.00 
 125   12:30   1.05    1.4    22    1.1   221     2.6   836.2    0.00 
 125   12:40   1.04  -35.6     2    1.3   183     3.0   836.2    0.00 
 125   12:50   1.03   -5.2    19    1.0   183     2.8   836.1    0.00 
 125   13:00   1.02    0.6    22    1.1   142     3.1   836.1    0.00 
 125   13:10   1.00  -20.9    10    1.0   136     2.7   836.0    0.00 
 125   13:20   0.97  -38.1     1    0.9   184     2.3   836.0    0.00 
 125   13:30   0.96   -3.0    18    0.9   166     3.0   835.9    0.00 
 125   13:40   0.94  -26.4     8    1.2   171     2.5   835.7    0.00 
 125   13:50   0.93  -39.7     0    1.1   174     3.1   835.6    0.00 
 125   14:00   0.90  -17.4    12    0.9   161     4.2   835.5    0.00 
 125   14:10   0.56  -19.8    11    1.1   173     2.7   835.5    0.00 
 125   14:20   0.25  -38.8     1    1.1   175     2.8   835.4    0.00 
 125   14:30   0.10  -39.1     0    1.0   162     2.4   835.3    0.00 
 125   14:40   0.13  -34.4     3    0.9   200     2.5   835.3    0.00 
 125   14:50   0.09  -32.9     4    1.0   239     2.6   835.2    0.00 
 125   15:00   0.07  -33.2     4    1.0   163     2.3   835.1    0.00 
 125   15:10   0.06  -33.8     3    1.0   187     2.9   835.0    0.00 
 125   15:20   0.06  -31.6     4    1.1   186     2.7   834.9    0.00 
 125   15:30   0.20  -34.3     3    0.8   207     2.3   834.9    0.00 
 125   15:40   0.14  -36.2     2    0.8   296     2.7   834.9    0.00 
 125   15:50   0.22  -33.7     3    1.0   171     2.6   834.8    0.00 
 125   16:00   0.10  -34.3     3    0.8   186     2.0   834.8    0.00 
 125   16:10   0.04  -37.7     1    0.9   207     2.4   834.8    0.00 
 125   16:20   0.04  -37.2     2    0.9   223     2.0   834.8    0.00 
 125   16:30   0.04  -36.9     2    0.7   210     1.8   834.8    0.00 
 125   16:40   0.04  -35.6     2    0.8   149     2.2   834.9    0.00 
 125   16:50   0.03  -35.6     2    0.6   195     1.4   834.9    0.00 
 125   17:00   0.03  -36.3     2    0.8   210     2.0   834.9    0.00 
 125   17:10   0.03   -4.8    19    0.7   237     2.0   834.9    0.00 
 125   17:20   0.02   11.6    28    0.8   238     1.9   834.9    0.00 
 125   17:30   0.02  -11.5    16    0.5   247     1.6   834.9    0.00 
 125   17:40   0.02  -17.5    12    0.7   224     1.5   834.8    0.00 
 125   17:50   0.01  -26.7     7    0.8   230     1.2   834.8    0.00 
 125   18:00   0.01  -27.7     7    0.4   260     1.1   834.8    0.00 
 125   18:10   0.01   -5.5    19    0.3   320     0.8   834.7    0.00 
 125   18:20   0.00   21.5    35    0.2   248     0.5   834.7    0.00 
 125   18:30   0.00  -16.6    13    0.3   338     0.6   834.6    0.00 
 125   18:40   0.00  -35.6     2    0.3   341     0.7   834.6    0.00 
 125   18:50   0.00  -25.9     7    0.3   328     0.6   834.7    0.00 
 125   19:00   0.00  -28.3     7    0.3   336     0.7   834.7    0.00 
 125   19:10   0.00   27.0    37    0.3   344     0.6   834.7    0.00 
 125   19:20   0.00   55.6    52    0.3   286     0.6   834.7    0.00 
 125   19:30   0.00   34.2    42    0.3   350     0.6   834.8    0.00 
 125   19:40   0.00  -17.1    30    0.3   335     0.5   834.8    0.00 
 125   19:50   0.00   15.8    40    0.3   335     0.6   834.8    0.00 
 125   20:00   0.00   19.7    80    0.3   345     0.6   834.8    0.00 
 125   20:10   0.00   10.0    63    0.2   336     0.5   834.8    0.00 
 125   20:20   0.00   31.7    56    0.3   325     0.6   834.9    0.00 
 125   20:30   0.00   40.8    84    0.3    11     0.6   834.9    0.00 
 125   20:40   0.00   22.9    71    0.4   336     0.6   834.9    0.00 
 125   20:50   0.00   39.7    86    0.4   357     1.0   834.9    0.00 
 125   21:00   0.00   36.0    79    0.3   319     0.6   834.9    0.00 
 125   21:10   0.00   41.2    87    0.3   354     1.0   834.9    0.00 
 125   21:20   0.00   41.9    88    0.5    26     0.9   834.9    0.00 
 125   21:30   0.00   41.1    87    0.4     7     0.9   835.0    0.00 
 125   21:40   0.00   39.0    84    0.3   349     0.7   835.0    0.00 
 125   21:50   0.00   40.6    87    0.4     2     0.8   834.9    0.00 
 125   22:00   0.00   40.6    86    0.3    14     0.9   834.8    0.00 
 125   22:10   0.00   40.2    84    0.4    17     0.8   834.7    0.00 
 125   22:20   0.00   40.4    82    0.5    33     1.0   834.6    0.00 
 125   22:30   0.00   41.1    82    0.5    38     0.8   834.4    0.00 
 125   22:40   0.00   41.4    82    0.5    23     1.0   834.3    0.00 
 125   22:50   0.00   41.6    82    0.7    34     1.4   834.2    0.00 
 125   23:00   0.00   41.7    81    0.7    38     1.6   834.1    0.00 
 125   23:10   0.00   41.6    79    0.4    38     1.0   834.1    0.00 
 125   23:20   0.00   41.0    77    0.7    47     1.4   834.0    0.00 
 125   23:30   0.00   41.2    77    0.5    41     1.1   833.9    0.00 
 125   23:40   0.00   39.2    77    0.3     9     0.8   834.0    0.00 
 125   23:50   0.00   40.5    77    0.5    32     1.1   834.0    0.00 
 126    0:00   0.00   40.1    78    0.4    28     1.0   833.9    0.00 
 126    0:10   0.00   39.8    78    0.5    38     1.4   833.8    0.00 
 126    0:20   0.00   39.8    79    0.4    29     1.1   833.6    0.00 
 126    0:30   0.00   40.1    81    0.4    36     1.0   833.5    0.00 
 126    0:40   0.00   40.2    81    0.5    40     1.5   833.3    0.00 
 126    0:50   0.00   40.4    81    0.4    40     1.0   833.3    0.00 
 126    1:00   0.00   40.4    81    0.6    50     1.4   833.2    0.00 
 126    1:10   0.00   40.4    79    0.7    41     1.4   833.1    0.00 
 126    1:20   0.00   40.1    77    0.4    36     1.4   832.9    0.00 
 126    1:30   0.00   39.4    75    0.4     6     0.9   832.8    0.00 
 126    1:40   0.00   38.8    74    0.4    10     0.8   832.7    0.00 
 126    1:50   0.00   38.4    73    0.6    11     1.1   832.7    0.00 
 126    2:00   0.00   38.1    74    0.6    36     1.4   832.6    0.00 
 126    2:10   0.00   37.3    75    0.5   217     1.6   832.8    0.00 
 126    2:20   0.00   38.1    81    0.6    26     1.3   833.1    0.00 
 126    2:30   0.00   37.3    81    0.4    25     1.0   833.0    0.00 
 126    2:40   0.00   37.3    88    0.3     9     0.8   832.9    0.00 
 126    2:50   0.00   35.8    88    0.4   340     0.8   832.9    0.00 
 126    3:00   0.00   37.2    89    0.4    21     0.9   832.9    0.00 
 126    3:10   0.00   35.4    87    0.4    21     0.7   832.9    0.00 
 126    3:20   0.00   32.8    84    0.5    31     0.9   832.7    0.00 
 126    3:30   0.00   25.5    76    0.5    16     1.0   832.7    0.00 
 126    3:40   0.00   24.9    74    0.6    44     1.2   832.7    0.00 
 126    3:50   0.00   27.1    75    0.4    25     0.7   832.6    0.00 

Return to James Reserve graphs page.


Western Regional Climate Center,wrcc@dri.edu